createdAt,value
2023-09-18T00:01:38.958Z,11.8
2023-09-18T00:17:21.257Z,12.5
2023-09-18T00:33:03.551Z,11.8
2023-09-18T00:48:45.601Z,11
2023-09-18T01:04:28.174Z,11.1
2023-09-18T01:20:11.067Z,12.2
2023-09-18T01:35:53.498Z,10.8
2023-09-18T01:51:35.937Z,11.5
2023-09-18T02:07:18.603Z,10.6
2023-09-18T02:23:01.202Z,11.9
2023-09-18T02:38:43.436Z,13.5
2023-09-18T02:54:26.282Z,11.8
2023-09-18T03:10:08.903Z,12
2023-09-18T03:25:51.559Z,15.1
2023-09-18T03:41:34.517Z,13.5
2023-09-18T03:57:16.808Z,13.1
2023-09-18T04:12:59.570Z,12.1
2023-09-18T04:28:42.352Z,12.8
2023-09-18T04:44:25.202Z,12.5
2023-09-18T05:00:07.684Z,14.9
2023-09-18T05:15:50.353Z,11.6
2023-09-18T05:16:37.614Z,12.3
2023-09-18T05:32:20.088Z,13.7
2023-09-18T05:48:02.884Z,16
2023-09-18T06:03:45.107Z,10.8
2023-09-18T06:19:28.007Z,11.7
2023-09-18T06:35:10.583Z,12.3
2023-09-18T06:50:52.691Z,9.39
2023-09-18T07:06:35.437Z,9.1
2023-09-18T07:22:17.495Z,9.6
2023-09-18T07:37:59.711Z,8.5
2023-09-18T07:53:41.916Z,8.2
2023-09-18T08:09:24.305Z,7.7
2023-09-18T08:25:06.631Z,8.5
2023-09-18T08:40:48.698Z,6.2
2023-09-18T08:56:30.632Z,6.8
2023-09-18T09:12:12.718Z,6.5
2023-09-18T09:27:55.455Z,6.6
2023-09-18T09:43:37.921Z,6
2023-09-18T09:59:20.772Z,5.2
2023-09-18T10:15:03.353Z,5.3
2023-09-18T10:30:45.514Z,6.7
2023-09-18T10:46:27.559Z,7
2023-09-18T11:02:10.096Z,6.2
2023-09-18T11:17:52.402Z,6.7
2023-09-18T11:33:34.799Z,6.6
2023-09-18T12:04:59.613Z,6.7
2023-09-18T12:20:41.724Z,6.3
2023-09-18T12:36:23.908Z,6.4
2023-09-18T12:52:05.869Z,6.8
2023-09-18T13:07:48.630Z,6.2
2023-09-18T13:23:30.910Z,7
2023-09-18T13:39:13.474Z,8.5
2023-09-18T13:54:55.888Z,8
2023-09-18T14:10:38.544Z,7.2
2023-09-18T14:26:20.640Z,9
2023-09-18T14:42:03.508Z,7.9
2023-09-18T14:57:46.168Z,8.7
2023-09-18T15:29:11.156Z,8.3
2023-09-18T15:44:53.828Z,9
2023-09-18T16:00:35.701Z,8.1
2023-09-18T16:16:18.385Z,9
2023-09-18T16:32:01.176Z,10.4
2023-09-18T16:47:43.642Z,7.7
2023-09-18T17:03:26.105Z,9.7
2023-09-18T17:19:08.975Z,7.8
2023-09-18T17:34:50.971Z,8.1
2023-09-18T17:50:33.681Z,8.6
2023-09-18T18:06:15.729Z,7.7
2023-09-18T18:21:57.923Z,8.6
2023-09-18T18:37:40.742Z,8.3
2023-09-18T18:53:23.000Z,6.3
2023-09-18T19:09:05.794Z,5.5
2023-09-18T19:24:48.342Z,5.7
2023-09-18T19:40:30.781Z,6.4
2023-09-18T19:56:13.520Z,4.8
2023-09-18T20:11:56.044Z,6.3
2023-09-18T20:27:38.750Z,7
2023-09-18T20:43:20.778Z,7.9
2023-09-18T20:59:03.382Z,5.2
2023-09-18T21:14:45.837Z,5.3
2023-09-18T21:30:28.352Z,5.4
2023-09-18T21:46:11.262Z,5.4
2023-09-18T22:01:53.682Z,6.7
2023-09-18T22:17:35.666Z,5.9
2023-09-18T22:33:18.229Z,6.4
2023-09-18T22:49:01.131Z,6.2
2023-09-18T23:04:43.368Z,6.2
2023-09-18T23:20:26.208Z,6.3
2023-09-18T23:36:08.449Z,6.8
2023-09-18T23:51:51.394Z,6.7
